Terminal Aerodrome Forecast
Issued by NWS Burlington, VT

Home | Current Version | Previous Version | Text Only | Print | Product List | Glossary On
Versions: 1 2 3 4 5 6 7 8 9 10 11 12 13 14 15 16 17 18 19
000
FTUS41 KBTV 210200 AAB
TAFBTV
TAF AMD
KBTV 210200Z 2102/2124 18006KT P6SM BKN018 OVC022
     FM210500 17005KT P6SM BKN015 OVC020
      TEMPO 2111/2115 5SM BR OVC010
     FM211800 18008KT P6SM SCT015 OVC020
     FM212100 VRB04KT P6SM SCT020 OVC028=

USA.gov is the U.S. government's official web portal to all federal, state and local government web resources and services.